TimeCDT,TemperatureF,Dew PointF,Humidity,Sea Level PressureIn,VisibilityMPH,Wind Direction,Wind SpeedMPH,Gust SpeedMPH,PrecipitationIn,Events,Conditions,WindDirDegrees,DateUTC
12:15 AM,71.6,66.2,83,30.21,10.0,SSE,4.6,-,N/A,,Clear,160,2013-08-26 05:15:00
12:35 AM,71.6,66.2,83,30.21,8.0,South,3.5,-,N/A,,Clear,170,2013-08-26 05:35:00
12:55 AM,71.6,66.2,83,30.21,10.0,South,5.8,-,N/A,,Clear,170,2013-08-26 05:55:00
1:15 AM,71.6,66.2,83,30.21,10.0,SSE,5.8,-,N/A,,Clear,160,2013-08-26 06:15:00
1:35 AM,71.6,66.2,83,30.21,10.0,South,5.8,-,N/A,,Clear,170,2013-08-26 06:35:00
1:55 AM,71.6,66.2,83,30.20,10.0,South,4.6,-,N/A,,Clear,170,2013-08-26 06:55:00
2:15 AM,71.6,66.2,83,30.21,10.0,SSE,4.6,-,N/A,,Clear,160,2013-08-26 07:15:00
2:35 AM,71.6,66.2,83,30.21,8.0,SSE,4.6,-,N/A,,Clear,150,2013-08-26 07:35:00
2:55 AM,71.6,66.2,83,30.20,7.0,SSE,4.6,-,N/A,,Clear,150,2013-08-26 07:55:00
3:15 AM,69.8,66.2,88,30.21,6.0,SSE,4.6,-,N/A,,Clear,160,2013-08-26 08:15:00
3:35 AM,71.6,66.2,83,30.21,6.0,SSE,3.5,-,N/A,,Clear,150,2013-08-26 08:35:00
3:55 AM,71.6,66.2,83,30.20,5.0,South,3.5,-,N/A,,Clear,170,2013-08-26 08:55:00
4:15 AM,71.6,66.2,83,30.20,5.0,SSE,3.5,-,N/A,,Clear,160,2013-08-26 09:15:00
4:35 AM,71.6,66.2,83,30.20,5.0,SSE,3.5,-,N/A,,Clear,160,2013-08-26 09:35:00
4:55 AM,69.8,66.2,88,30.20,4.0,SSE,4.6,-,N/A,,Clear,150,2013-08-26 09:55:00
5:15 AM,69.8,66.2,88,30.20,4.0,SSE,4.6,-,N/A,,Clear,160,2013-08-26 10:15:00
5:35 AM,69.8,66.2,88,30.20,4.0,SSE,4.6,-,N/A,,Clear,160,2013-08-26 10:35:00
5:55 AM,69.8,66.2,88,30.20,4.0,South,3.5,-,N/A,,Clear,170,2013-08-26 10:55:00
6:15 AM,69.8,66.2,88,30.20,4.0,South,3.5,-,N/A,,Clear,170,2013-08-26 11:15:00
6:35 AM,69.8,66.2,88,30.21,2.5,South,3.5,-,N/A,,Clear,170,2013-08-26 11:35:00
6:55 AM,69.8,66.2,88,30.22,2.0,Calm,Calm,-,N/A,,Clear,0,2013-08-26 11:55:00
7:15 AM,69.8,66.2,88,30.22,2.5,Calm,Calm,-,N/A,,Clear,0,2013-08-26 12:15:00
7:35 AM,71.6,68.0,88,30.23,2.5,SSE,3.5,-,N/A,,Clear,160,2013-08-26 12:35:00
7:55 AM,71.6,69.8,94,30.23,3.0,SSE,3.5,-,N/A,,Clear,160,2013-08-26 12:55:00
8:15 AM,73.4,69.8,88,30.23,5.0,South,3.5,-,N/A,,Clear,170,2013-08-26 13:15:00
8:35 AM,75.2,69.8,83,30.23,7.0,South,4.6,-,N/A,,Clear,170,2013-08-26 13:35:00
8:55 AM,77.0,69.8,78,30.23,10.0,South,4.6,-,N/A,,Clear,180,2013-08-26 13:55:00
9:15 AM,78.8,71.6,78,30.23,10.0,South,4.6,-,N/A,,Clear,190,2013-08-26 14:15:00
9:35 AM,80.6,71.6,74,30.23,10.0,SW,5.8,-,N/A,,Clear,220,2013-08-26 14:35:00
9:55 AM,82.4,71.6,70,30.23,10.0,SW,5.8,-,N/A,,Clear,230,2013-08-26 14:55:00
10:15 AM,82.4,71.6,70,30.23,10.0,SW,10.4,-,N/A,,Clear,230,2013-08-26 15:15:00
10:35 AM,84.2,71.6,66,30.23,10.0,WSW,8.1,-,N/A,,Clear,250,2013-08-26 15:35:00
10:55 AM,84.2,71.6,66,30.23,10.0,WSW,8.1,-,N/A,,Clear,250,2013-08-26 15:55:00
11:15 AM,86.0,71.6,62,30.23,10.0,West,4.6,-,N/A,,Clear,270,2013-08-26 16:15:00
11:35 AM,86.0,71.6,62,30.22,10.0,WSW,8.1,-,N/A,,Clear,250,2013-08-26 16:35:00
11:55 AM,87.8,71.6,58,30.22,10.0,West,4.6,-,N/A,,Clear,270,2013-08-26 16:55:00
12:15 PM,87.8,71.6,58,30.21,10.0,SW,6.9,-,N/A,,Clear,220,2013-08-26 17:15:00
12:35 PM,87.8,71.6,58,30.21,10.0,WSW,6.9,-,N/A,,Clear,250,2013-08-26 17:35:00
12:55 PM,89.6,71.6,55,30.20,10.0,South,3.5,-,N/A,,Scattered Clouds,190,2013-08-26 17:55:00
1:15 PM,89.6,71.6,55,30.20,10.0,WSW,6.9,-,N/A,,Partly Cloudy,240,2013-08-26 18:15:00
1:35 PM,89.6,69.8,52,30.19,10.0,WSW,6.9,-,N/A,,Clear,240,2013-08-26 18:35:00
1:55 PM,89.6,69.8,52,30.17,10.0,West,8.1,-,N/A,,Clear,260,2013-08-26 18:55:00
2:15 PM,89.6,69.8,52,30.17,10.0,SW,8.1,-,N/A,,Clear,220,2013-08-26 19:15:00
2:35 PM,91.4,69.8,49,30.16,10.0,West,5.8,-,N/A,,Clear,260,2013-08-26 19:35:00
2:55 PM,89.6,69.8,52,30.16,10.0,WSW,6.9,-,N/A,,Clear,240,2013-08-26 19:55:00
3:15 PM,89.6,69.8,52,30.15,10.0,SW,4.6,-,N/A,,Partly Cloudy,230,2013-08-26 20:15:00
3:35 PM,91.4,69.8,49,30.14,10.0,SSW,5.8,-,N/A,,Partly Cloudy,200,2013-08-26 20:35:00
3:55 PM,91.4,69.8,49,30.13,10.0,West,6.9,-,N/A,,Scattered Clouds,260,2013-08-26 20:55:00
4:15 PM,91.4,68.0,46,30.13,10.0,West,5.8,-,N/A,,Partly Cloudy,270,2013-08-26 21:15:00
4:35 PM,91.4,69.8,49,30.12,10.0,SSW,4.6,-,N/A,,Scattered Clouds,200,2013-08-26 21:35:00
4:55 PM,91.4,69.8,49,30.12,10.0,WSW,5.8,-,N/A,,Scattered Clouds,240,2013-08-26 21:55:00
5:15 PM,91.4,69.8,49,30.12,10.0,SSW,5.8,-,N/A,,Partly Cloudy,210,2013-08-26 22:15:00
5:35 PM,91.4,69.8,49,30.12,10.0,WSW,4.6,-,N/A,,Clear,250,2013-08-26 22:35:00
5:55 PM,89.6,69.8,52,30.12,10.0,West,4.6,-,N/A,,Scattered Clouds,280,2013-08-26 22:55:00
6:15 PM,89.6,69.8,52,30.11,10.0,WSW,4.6,-,N/A,,Partly Cloudy,250,2013-08-26 23:15:00
6:35 PM,87.8,69.8,55,30.11,10.0,WSW,3.5,-,N/A,,Clear,250,2013-08-26 23:35:00
6:55 PM,87.8,71.6,58,30.11,10.0,West,3.5,-,N/A,,Clear,260,2013-08-26 23:55:00
7:15 PM,87.8,71.6,58,30.11,10.0,WSW,3.5,-,N/A,,Clear,240,2013-08-27 00:15:00
7:35 PM,82.4,73.4,74,30.11,10.0,Calm,Calm,-,N/A,,Clear,0,2013-08-27 00:35:00
7:55 PM,80.6,73.4,79,30.12,10.0,Calm,Calm,-,N/A,,Clear,0,2013-08-27 00:55:00
8:15 PM,78.8,71.6,78,30.12,10.0,Calm,Calm,-,N/A,,Clear,0,2013-08-27 01:15:00
8:35 PM,78.8,71.6,78,30.12,10.0,Calm,Calm,-,N/A,,Clear,0,2013-08-27 01:35:00
8:55 PM,77.0,71.6,83,30.12,10.0,Calm,Calm,-,N/A,,Clear,0,2013-08-27 01:55:00
9:15 PM,75.2,71.6,89,30.12,10.0,Calm,Calm,-,N/A,,Clear,0,2013-08-27 02:15:00
9:35 PM,77.0,71.6,83,30.12,10.0,Calm,Calm,-,N/A,,Clear,0,2013-08-27 02:35:00
9:55 PM,77.0,71.6,83,30.12,10.0,Calm,Calm,-,N/A,,Clear,0,2013-08-27 02:55:00
10:15 PM,75.2,71.6,89,30.11,10.0,SSW,3.5,-,N/A,,Clear,200,2013-08-27 03:15:00
10:35 PM,77.0,71.6,83,30.11,10.0,South,3.5,-,N/A,,Clear,180,2013-08-27 03:35:00
10:55 PM,77.0,71.6,83,30.11,10.0,SSW,3.5,-,N/A,,Clear,200,2013-08-27 03:55:00
11:15 PM,77.0,71.6,83,30.11,10.0,Calm,Calm,-,N/A,,Clear,0,2013-08-27 04:15:00
11:35 PM,77.0,69.8,78,30.11,10.0,Calm,Calm,-,N/A,,Clear,0,2013-08-27 04:35:00
11:55 PM,75.2,69.8,83,30.11,10.0,South,3.5,-,N/A,,Clear,170,2013-08-27 04:55:00